createdAt,value
2022-08-07T00:00:36.258Z,2.40
2022-08-07T00:03:08.726Z,2.40
2022-08-07T00:05:36.283Z,1.95
2022-08-07T00:08:05.218Z,2.80
2022-08-07T00:10:34.908Z,2.60
2022-08-07T00:13:23.523Z,2.10
2022-08-07T00:15:52.558Z,2.33
2022-08-07T00:18:24.398Z,2.55
2022-08-07T00:20:57.495Z,2.67
2022-08-07T00:23:30.210Z,2.45
2022-08-07T00:26:00.237Z,2.50
2022-08-07T00:28:33.572Z,2.70
2022-08-07T00:31:06.115Z,2.20
2022-08-07T00:33:39.795Z,2.63
2022-08-07T00:36:08.301Z,2.63
2022-08-07T00:38:36.768Z,2.70
2022-08-07T00:41:10.004Z,2.08
2022-08-07T00:43:58.951Z,2.60
2022-08-07T00:46:28.042Z,2.30
2022-08-07T00:48:54.555Z,2.30
2022-08-07T00:51:21.553Z,2.47
2022-08-07T00:53:50.730Z,2.30
2022-08-07T00:56:30.283Z,2.45
2022-08-07T00:58:57.571Z,2.05
2022-08-07T01:01:24.349Z,2.60
2022-08-07T01:03:56.119Z,2.03
2022-08-07T01:06:29.591Z,2.03
2022-08-07T01:08:58.643Z,2.10
2022-08-07T01:12:28.076Z,2.08
2022-08-07T01:14:17.132Z,2.70
2022-08-07T01:16:48.889Z,2.40
2022-08-07T01:19:18.992Z,2.15
2022-08-07T01:21:48.333Z,1.85
2022-08-07T01:24:18.776Z,1.80
2022-08-07T01:26:52.187Z,2.30
2022-08-07T01:29:20.136Z,1.83
2022-08-07T01:31:48.846Z,2.25
2022-08-07T01:34:15.650Z,2.10
2022-08-07T01:36:44.112Z,2.30
2022-08-07T01:39:11.409Z,1.90
2022-08-07T01:41:40.802Z,1.63
2022-08-07T01:44:26.131Z,2.00
2022-08-07T01:46:53.335Z,1.70
2022-08-07T01:49:22.278Z,1.95
2022-08-07T01:52:03.316Z,1.70
2022-08-07T01:54:37.187Z,1.88
2022-08-07T01:57:20.428Z,1.80
2022-08-07T02:00:03.207Z,2.20
2022-08-07T02:03:11.962Z,1.98
2022-08-07T02:05:47.908Z,2.13
2022-08-07T02:08:25.492Z,1.58
2022-08-07T02:10:58.007Z,1.98
2022-08-07T02:13:57.732Z,2.03
2022-08-07T02:16:18.160Z,2.03
2022-08-07T02:18:51.110Z,1.75
2022-08-07T02:21:19.761Z,1.83
2022-08-07T02:23:47.842Z,1.80
2022-08-07T02:26:32.654Z,1.85
2022-08-07T02:29:03.414Z,1.70
2022-08-07T02:31:32.788Z,1.70
2022-08-07T02:34:03.612Z,1.63
2022-08-07T02:36:39.426Z,1.60
2022-08-07T02:41:50.808Z,1.17
2022-08-07T02:44:23.885Z,1.40
2022-08-07T02:46:56.283Z,1.30
2022-08-07T02:49:28.887Z,1.40
2022-08-07T02:52:17.185Z,1.27
2022-08-07T02:54:50.588Z,0.90
2022-08-07T02:57:22.253Z,1.13
2022-08-07T02:59:55.174Z,1.27
2022-08-07T03:02:28.181Z,1.20
2022-08-07T03:04:55.631Z,1.05
2022-08-07T03:08:05.368Z,1.40
2022-08-07T03:10:10.149Z,1.30
2022-08-07T03:12:41.916Z,0.93
2022-08-07T03:15:10.827Z,0.98
2022-08-07T03:17:53.587Z,0.93
2022-08-07T03:20:23.996Z,1.05
2022-08-07T03:22:52.708Z,0.68
2022-08-07T03:25:21.350Z,0.80
2022-08-07T03:28:09.174Z,0.80
2022-08-07T03:30:37.474Z,1.20
2022-08-07T03:33:08.017Z,0.65
2022-08-07T03:35:50.015Z,0.90
2022-08-07T03:38:20.901Z,1.02
2022-08-07T03:40:57.234Z,0.77
2022-08-07T03:43:26.484Z,0.93
2022-08-07T03:45:53.729Z,0.85
2022-08-07T03:48:20.866Z,1.40
2022-08-07T03:50:52.106Z,0.75
2022-08-07T03:54:05.771Z,1.00
2022-08-07T03:56:10.639Z,0.68
2022-08-07T03:59:08.664Z,1.17
2022-08-07T04:01:28.835Z,0.80
2022-08-07T04:03:55.628Z,0.85
2022-08-07T04:06:38.024Z,1.02
2022-08-07T04:09:05.863Z,0.98
2022-08-07T04:12:25.501Z,1.08
2022-08-07T04:14:37.631Z,0.70
2022-08-07T04:17:20.149Z,0.93
2022-08-07T04:19:52.011Z,1.10
2022-08-07T04:22:23.507Z,1.20
2022-08-07T04:24:55.949Z,1.20
2022-08-07T04:27:25.634Z,1.27
2022-08-07T04:30:01.963Z,0.95
2022-08-07T04:32:34.475Z,0.68
2022-08-07T04:35:05.781Z,0.90
2022-08-07T04:38:01.146Z,0.90
2022-08-07T04:40:21.192Z,1.00
2022-08-07T04:42:52.336Z,1.20
2022-08-07T04:45:44.478Z,1.00
2022-08-07T04:48:44.831Z,1.00
2022-08-07T04:51:49.304Z,1.13
2022-08-07T04:54:30.027Z,0.80
2022-08-07T04:58:11.765Z,1.35
2022-08-07T05:00:18.663Z,0.85
2022-08-07T05:02:57.070Z,0.85
2022-08-07T05:05:53.113Z,1.10
2022-08-07T05:09:00.169Z,1.38
2022-08-07T05:11:57.560Z,1.30
2022-08-07T05:14:55.527Z,1.00
2022-08-07T05:17:16.199Z,1.10
2022-08-07T05:20:05.360Z,0.93
2022-08-07T05:22:38.973Z,1.20
2022-08-07T05:28:15.928Z,1.27
2022-08-07T05:30:32.614Z,1.70
2022-08-07T05:33:02.583Z,1.30
2022-08-07T05:35:33.457Z,1.40
2022-08-07T05:38:09.025Z,1.15
2022-08-07T05:40:51.444Z,1.20
2022-08-07T05:43:56.458Z,1.30
2022-08-07T05:46:06.898Z,1.05
2022-08-07T05:48:34.258Z,1.23
2022-08-07T05:51:01.910Z,1.60
2022-08-07T05:54:12.002Z,1.25
2022-08-07T05:56:30.023Z,1.45
2022-08-07T05:58:58.992Z,1.17
2022-08-07T06:01:27.561Z,1.38
2022-08-07T06:04:04.644Z,1.00
2022-08-07T06:06:33.545Z,1.00
2022-08-07T06:09:01.256Z,1.25
2022-08-07T06:11:33.466Z,1.73
2022-08-07T06:14:13.032Z,1.23
2022-08-07T06:16:50.292Z,1.05
2022-08-07T06:19:47.979Z,1.23
2022-08-07T06:22:14.890Z,1.80
2022-08-07T06:24:57.708Z,1.52
2022-08-07T06:27:59.819Z,1.30
2022-08-07T06:30:32.322Z,1.10
2022-08-07T06:32:59.390Z,0.95
2022-08-07T06:35:30.618Z,1.55
2022-08-07T06:38:19.886Z,1.45
2022-08-07T06:40:53.227Z,1.73
2022-08-07T06:43:23.625Z,1.80
2022-08-07T06:45:50.921Z,1.50
2022-08-07T06:48:25.163Z,1.40
2022-08-07T06:50:54.912Z,1.13
2022-08-07T06:55:29.352Z,1.63
2022-08-07T06:56:15.434Z,1.20
2022-08-07T07:00:11.592Z,2.00
2022-08-07T07:01:44.026Z,1.67
2022-08-07T07:04:28.122Z,1.70
2022-08-07T07:07:01.869Z,1.52
2022-08-07T07:09:31.206Z,1.35
2022-08-07T07:12:24.775Z,1.40
2022-08-07T07:15:00.534Z,1.63
2022-08-07T07:18:12.184Z,1.23
2022-08-07T07:21:19.518Z,1.30
2022-08-07T07:24:08.229Z,1.40
2022-08-07T07:26:37.728Z,1.83
2022-08-07T07:29:38.674Z,1.75
2022-08-07T07:31:59.306Z,1.98
2022-08-07T07:34:31.917Z,1.88
2022-08-07T07:37:14.618Z,1.73
2022-08-07T07:39:55.258Z,1.67
2022-08-07T07:42:29.979Z,1.65
2022-08-07T07:45:01.993Z,1.67
2022-08-07T07:47:30.330Z,1.80
2022-08-07T07:50:33.285Z,1.40
2022-08-07T07:53:20.447Z,1.15
2022-08-07T07:55:54.824Z,1.88
2022-08-07T07:58:25.433Z,1.50
2022-08-07T08:00:55.800Z,1.50
2022-08-07T08:04:09.299Z,1.48
2022-08-07T08:06:13.118Z,1.60
2022-08-07T08:08:41.830Z,1.67
2022-08-07T08:11:16.049Z,1.60
2022-08-07T08:13:54.331Z,1.50
2022-08-07T08:16:26.332Z,1.38
2022-08-07T08:18:58.361Z,1.48
2022-08-07T08:22:00.451Z,2.13
2022-08-07T08:24:57.348Z,1.40
2022-08-07T08:27:44.048Z,1.13
2022-08-07T08:30:24.909Z,1.50
2022-08-07T08:32:58.861Z,1.55
2022-08-07T08:35:28.908Z,1.42
2022-08-07T08:38:08.229Z,1.45
2022-08-07T08:40:48.110Z,1.50
2022-08-07T08:43:42.847Z,1.50
2022-08-07T08:46:25.597Z,1.42
2022-08-07T08:49:33.514Z,1.38
2022-08-07T08:52:22.484Z,1.23
2022-08-07T08:54:58.108Z,1.40
2022-08-07T08:57:39.463Z,1.35
2022-08-07T09:00:10.521Z,1.23
2022-08-07T09:03:00.960Z,1.10
2022-08-07T09:05:53.522Z,1.08
2022-08-07T09:08:55.557Z,1.13
2022-08-07T09:11:43.798Z,1.35
2022-08-07T09:14:58.815Z,1.30
2022-08-07T09:17:59.596Z,1.30
2022-08-07T09:21:57.811Z,1.02
2022-08-07T09:24:58.995Z,1.13
2022-08-07T09:28:02.886Z,1.42
2022-08-07T09:30:56.716Z,1.13
2022-08-07T09:33:57.044Z,0.90
2022-08-07T09:36:43.004Z,1.10
2022-08-07T09:39:52.832Z,1.00
2022-08-07T09:42:22.960Z,1.40
2022-08-07T09:47:25.279Z,1.00
2022-08-07T09:48:14.471Z,0.70
2022-08-07T09:51:20.233Z,0.90
2022-08-07T09:54:03.402Z,0.80
2022-08-07T09:57:06.973Z,0.98
2022-08-07T10:00:00.284Z,0.98
2022-08-07T10:02:55.020Z,0.65
2022-08-07T10:06:01.305Z,0.90
2022-08-07T10:08:56.693Z,0.90
2022-08-07T10:12:01.963Z,0.90
2022-08-07T10:14:54.220Z,0.45
2022-08-07T10:18:01.538Z,0.98
2022-08-07T10:20:44.420Z,1.00
2022-08-07T10:24:04.734Z,0.85
2022-08-07T10:26:53.018Z,1.23
2022-08-07T10:29:45.921Z,0.90
2022-08-07T10:32:36.540Z,1.05
2022-08-07T10:35:27.261Z,0.90
2022-08-07T10:38:48.394Z,0.80
2022-08-07T10:41:47.325Z,1.02
2022-08-07T10:44:38.686Z,1.30
2022-08-07T10:47:17.778Z,0.90
2022-08-07T10:49:52.895Z,0.82
2022-08-07T10:52:33.966Z,0.70
2022-08-07T10:55:37.659Z,0.90
2022-08-07T10:58:33.184Z,1.05
2022-08-07T11:01:35.483Z,1.40
2022-08-07T11:04:34.586Z,1.00
2022-08-07T11:07:58.551Z,1.90
2022-08-07T11:11:01.792Z,1.27
2022-08-07T11:14:42.545Z,1.23
2022-08-07T11:17:07.410Z,1.30
2022-08-07T11:19:44.602Z,1.40
2022-08-07T11:22:26.642Z,1.27
2022-08-07T11:25:16.437Z,1.20
2022-08-07T11:28:01.349Z,1.17
2022-08-07T11:30:48.504Z,1.17
2022-08-07T11:33:53.601Z,1.23
2022-08-07T11:36:33.694Z,1.40
2022-08-07T11:39:19.451Z,1.20
2022-08-07T11:42:03.057Z,1.30
2022-08-07T11:44:52.683Z,1.45
2022-08-07T11:48:06.115Z,1.67
2022-08-07T11:51:40.668Z,1.58
2022-08-07T11:54:17.824Z,1.00
2022-08-07T11:56:58.516Z,1.42
2022-08-07T12:34:29.926Z,1.35
2022-08-07T12:36:58.811Z,1.00
2022-08-07T12:39:44.334Z,0.80
2022-08-07T12:42:27.145Z,1.58
2022-08-07T12:47:37.929Z,1.35
2022-08-07T12:50:38.589Z,0.90
2022-08-07T12:53:22.374Z,0.88
2022-08-07T12:56:12.437Z,1.10
2022-08-07T12:58:46.785Z,1.08
2022-08-07T13:01:28.196Z,1.65
2022-08-07T13:04:31.838Z,1.08
2022-08-07T13:08:12.065Z,1.00
2022-08-07T13:10:59.390Z,1.45
2022-08-07T13:13:46.645Z,0.80
2022-08-07T13:16:31.208Z,1.20
2022-08-07T13:19:35.158Z,1.27
2022-08-07T13:22:30.846Z,1.10
2022-08-07T13:25:06.872Z,1.40
2022-08-07T13:28:11.433Z,1.15
2022-08-07T13:30:40.811Z,1.05
2022-08-07T13:34:30.946Z,0.93
2022-08-07T13:36:40.559Z,1.05
2022-08-07T13:39:12.990Z,1.13
2022-08-07T13:41:56.901Z,1.35
2022-08-07T13:44:26.852Z,1.17
2022-08-07T13:47:04.730Z,1.10
2022-08-07T13:50:33.174Z,0.95
2022-08-07T13:52:39.589Z,1.30
2022-08-07T13:55:19.619Z,1.65
2022-08-07T13:58:28.133Z,1.35
2022-08-07T14:01:09.355Z,1.15
2022-08-07T14:04:09.582Z,1.70
2022-08-07T14:06:36.974Z,1.85
2022-08-07T14:09:07.149Z,0.90
2022-08-07T14:11:53.630Z,0.90
2022-08-07T14:14:31.461Z,1.55
2022-08-07T14:17:13.201Z,1.88
2022-08-07T14:20:43.566Z,1.58
2022-08-07T14:22:45.637Z,1.60
2022-08-07T14:25:16.271Z,1.13
2022-08-07T14:28:12.930Z,1.02
2022-08-07T14:30:40.546Z,1.20
2022-08-07T14:33:08.470Z,1.67
2022-08-07T14:35:47.491Z,1.75
2022-08-07T14:57:11.686Z,1.15
2022-08-07T15:02:37.322Z,2.53
2022-08-07T15:07:56.513Z,1.17
2022-08-07T15:10:27.218Z,1.27
2022-08-07T15:15:53.617Z,1.10
2022-08-07T15:18:34.889Z,1.60
2022-08-07T15:21:58.576Z,1.33
2022-08-07T15:26:59.508Z,1.50
2022-08-07T15:30:10.226Z,1.33
2022-08-07T15:32:39.611Z,2.30
2022-08-07T15:43:53.558Z,1.45
2022-08-07T15:46:31.902Z,1.40
2022-08-07T15:49:12.780Z,1.77
2022-08-07T15:54:39.446Z,1.23
2022-08-07T15:57:27.945Z,1.20
2022-08-07T16:00:04.390Z,0.98
2022-08-07T16:02:41.218Z,1.25
2022-08-07T16:05:15.152Z,1.33
2022-08-07T16:08:30.742Z,1.30
2022-08-07T16:11:28.706Z,1.67
2022-08-07T16:14:07.062Z,1.00
2022-08-07T16:16:49.691Z,1.42
2022-08-07T16:19:41.781Z,1.75
2022-08-07T16:22:36.184Z,1.20
2022-08-07T16:25:54.649Z,1.20
2022-08-07T16:29:18.898Z,1.10
2022-08-07T16:31:57.430Z,1.40
2022-08-07T16:34:48.353Z,1.10
2022-08-07T16:38:03.235Z,1.25
2022-08-07T16:40:30.945Z,0.88
2022-08-07T16:43:15.570Z,1.20
2022-08-07T16:46:21.213Z,1.00
2022-08-07T16:50:27.449Z,1.10
2022-08-07T16:52:51.513Z,1.02
2022-08-07T16:55:08.377Z,0.90
2022-08-07T16:58:03.699Z,0.90
2022-08-07T17:00:41.751Z,1.05
2022-08-07T17:03:11.439Z,0.95
2022-08-07T17:06:29.130Z,1.00
2022-08-07T17:09:15.775Z,1.00
2022-08-07T17:12:03.912Z,1.15
2022-08-07T17:14:57.716Z,1.08
2022-08-07T17:17:49.102Z,1.27
2022-08-07T17:20:41.725Z,1.15
2022-08-07T17:23:32.395Z,0.93
2022-08-07T17:26:50.142Z,1.70
2022-08-07T17:30:15.858Z,0.95
2022-08-07T17:34:10.285Z,1.10
2022-08-07T17:35:57.647Z,1.23
2022-08-07T17:38:33.575Z,1.02
2022-08-07T17:42:04.893Z,1.08
2022-08-07T17:44:42.793Z,1.30
2022-08-07T17:47:42.059Z,1.33
2022-08-07T17:50:22.592Z,1.00
2022-08-07T17:53:59.574Z,1.00
2022-08-07T17:56:25.961Z,0.88
2022-08-07T17:58:56.864Z,1.13
2022-08-07T18:01:40.658Z,0.80
2022-08-07T18:04:16.251Z,1.08
2022-08-07T18:07:18.994Z,1.30
2022-08-07T18:10:04.739Z,1.40
2022-08-07T18:12:42.001Z,1.05
2022-08-07T18:15:15.816Z,1.15
2022-08-07T18:18:46.176Z,1.08
2022-08-07T18:21:07.391Z,1.05
2022-08-07T18:23:58.458Z,1.55
2022-08-07T18:26:51.044Z,1.10
2022-08-07T18:30:05.977Z,1.20
2022-08-07T18:32:41.737Z,1.42
2022-08-07T18:35:16.020Z,1.25
2022-08-07T18:38:56.528Z,1.50
2022-08-07T18:41:20.928Z,1.58
2022-08-07T18:44:03.573Z,1.20
2022-08-07T18:46:36.494Z,1.15
2022-08-07T18:50:33.149Z,0.80
2022-08-07T18:52:55.091Z,1.25
2022-08-07T18:55:41.770Z,1.05
2022-08-07T18:58:31.376Z,1.38
2022-08-07T19:01:03.829Z,1.40
2022-08-07T19:03:52.567Z,1.15
2022-08-07T19:06:48.186Z,1.25
2022-08-07T19:09:56.353Z,1.15
2022-08-07T19:12:53.484Z,1.27
2022-08-07T19:16:04.558Z,1.17
2022-08-07T19:18:34.513Z,1.50
2022-08-07T19:21:43.932Z,1.25
2022-08-07T19:24:30.980Z,1.63
2022-08-07T19:28:29.854Z,0.95
2022-08-07T19:31:01.229Z,1.00
2022-08-07T19:32:46.290Z,1.33
2022-08-07T19:35:25.746Z,1.02
2022-08-07T19:37:58.748Z,1.17
2022-08-07T19:40:31.370Z,1.08
2022-08-07T19:43:02.275Z,1.27
2022-08-07T19:46:05.615Z,0.98
2022-08-07T19:48:24.189Z,1.23
2022-08-07T19:50:53.679Z,0.90
2022-08-07T19:54:44.363Z,0.90
2022-08-07T19:57:56.881Z,0.80
2022-08-07T19:58:58.232Z,1.00
2022-08-07T20:01:52.877Z,1.15
2022-08-07T20:04:31.857Z,1.08
2022-08-07T20:07:09.242Z,1.30
2022-08-07T20:10:36.214Z,1.20
2022-08-07T20:12:43.252Z,1.20
2022-08-07T20:15:21.882Z,1.27
2022-08-07T20:18:01.271Z,0.95
2022-08-07T20:20:31.896Z,1.50
2022-08-07T20:23:23.087Z,1.38
2022-08-07T20:25:55.849Z,1.08
2022-08-07T20:28:29.680Z,0.95
2022-08-07T20:30:58.234Z,0.85
2022-08-07T20:33:37.581Z,1.35
2022-08-07T20:36:07.722Z,1.25
2022-08-07T20:38:35.862Z,1.10
2022-08-07T20:41:40.761Z,1.23
2022-08-07T20:44:12.857Z,0.90
2022-08-07T20:46:43.909Z,1.40
2022-08-07T20:49:58.400Z,1.20
2022-08-07T20:52:09.331Z,1.38
2022-08-07T20:54:53.251Z,1.15
2022-08-07T20:57:47.544Z,1.35
2022-08-07T21:00:46.465Z,1.50
2022-08-07T21:03:37.735Z,1.63
2022-08-07T21:06:21.837Z,1.35
2022-08-07T21:09:03.485Z,1.73
2022-08-07T21:11:50.411Z,1.65
2022-08-07T21:14:31.993Z,1.30
2022-08-07T21:18:02.919Z,1.33
2022-08-07T21:20:04.424Z,1.23
2022-08-07T21:22:39.485Z,1.30
2022-08-07T21:25:39.096Z,1.40
2022-08-07T21:28:09.095Z,1.40
2022-08-07T21:30:43.385Z,1.30
2022-08-07T21:33:29.384Z,1.20
2022-08-07T21:36:32.010Z,1.10
2022-08-07T21:39:47.889Z,1.70
2022-08-07T21:48:28.034Z,1.70
2022-08-07T21:50:59.382Z,1.15
2022-08-07T21:56:36.148Z,1.45
2022-08-07T21:59:21.407Z,1.50
2022-08-07T22:02:10.825Z,1.35
2022-08-07T22:04:51.300Z,1.58
2022-08-07T22:07:42.857Z,1.33
2022-08-07T22:10:18.241Z,1.63
2022-08-07T22:12:45.239Z,1.63
2022-08-07T22:16:39.713Z,1.42
2022-08-07T22:18:24.606Z,1.10
2022-08-07T22:21:06.262Z,1.42
2022-08-07T22:23:57.350Z,1.73
2022-08-07T22:26:35.519Z,1.40
2022-08-07T22:29:13.966Z,1.38
2022-08-07T22:31:59.905Z,1.40
2022-08-07T22:34:49.793Z,1.20
2022-08-07T22:38:02.931Z,1.60
2022-08-07T22:40:50.049Z,1.70
2022-08-07T22:43:41.810Z,1.52
2022-08-07T22:47:06.440Z,1.77
2022-08-07T22:52:36.925Z,1.27
2022-08-07T22:55:17.546Z,2.00
2022-08-07T22:58:04.455Z,1.60
2022-08-07T23:00:46.001Z,1.10
2022-08-07T23:03:58.457Z,1.30
2022-08-07T23:06:34.848Z,1.98
2022-08-07T23:10:03.889Z,1.85
2022-08-07T23:12:39.192Z,1.73
2022-08-07T23:16:06.089Z,2.20
2022-08-07T23:19:11.253Z,2.17
2022-08-07T23:21:52.129Z,1.88
2022-08-07T23:24:45.615Z,1.85
2022-08-07T23:27:34.509Z,1.67
2022-08-07T23:30:37.524Z,1.45
2022-08-07T23:34:35.254Z,1.70
2022-08-07T23:37:19.573Z,1.70
2022-08-07T23:39:42.599Z,2.10
2022-08-07T23:42:30.420Z,1.75
2022-08-07T23:45:33.207Z,1.40
2022-08-07T23:48:31.553Z,1.40
2022-08-07T23:53:00.113Z,1.70
2022-08-07T23:54:28.639Z,1.87
2022-08-07T23:57:34.695Z,1.80
